createdAt,value
2022-10-28T00:01:07.777Z,6.20
2022-10-28T00:03:38.668Z,6.05
2022-10-28T00:06:08.298Z,5.80
2022-10-28T00:08:38.428Z,5.90
2022-10-28T00:11:12.016Z,5.68
2022-10-28T00:13:39.513Z,5.93
2022-10-28T00:16:12.337Z,5.50
2022-10-28T00:18:43.235Z,5.88
2022-10-28T00:21:15.467Z,5.70
2022-10-28T00:23:42.544Z,6.07
2022-10-28T00:26:10.750Z,7.20
2022-10-28T00:28:45.784Z,5.93
2022-10-28T00:31:17.786Z,5.78
2022-10-28T00:33:44.988Z,5.68
2022-10-28T00:36:15.519Z,5.70
2022-10-28T00:38:45.979Z,5.88
2022-10-28T00:41:15.511Z,5.65
2022-10-28T00:43:57.030Z,5.43
2022-10-28T00:46:41.567Z,5.47
2022-10-28T00:49:22.535Z,5.95
2022-10-28T00:51:53.433Z,6.15
2022-10-28T00:54:20.754Z,5.68
2022-10-28T00:56:51.885Z,5.90
2022-10-28T00:59:23.711Z,5.97
2022-10-28T01:01:51.231Z,5.68
2022-10-28T01:04:19.736Z,6.15
2022-10-28T01:06:48.113Z,5.97
2022-10-28T01:09:14.835Z,5.82
2022-10-28T01:12:09.075Z,6.00
2022-10-28T01:14:56.566Z,5.47
2022-10-28T01:17:51.203Z,5.97
2022-10-28T01:20:44.246Z,6.03
2022-10-28T01:23:31.449Z,5.38
2022-10-28T01:26:29.136Z,5.50
2022-10-28T01:29:07.780Z,5.72
2022-10-28T01:32:05.957Z,5.88
2022-10-28T01:34:48.768Z,5.50
2022-10-28T01:37:35.222Z,4.72
2022-10-28T01:40:12.371Z,5.20
2022-10-28T01:42:51.699Z,5.47
2022-10-28T01:45:36.440Z,6.25
2022-10-28T01:48:08.373Z,5.50
2022-10-28T01:51:01.739Z,5.60
2022-10-28T01:53:33.754Z,6.63
2022-10-28T01:56:08.093Z,5.93
2022-10-28T01:58:38.938Z,5.88
2022-10-28T02:01:08.317Z,5.30
2022-10-28T02:03:37.146Z,6.43
2022-10-28T02:06:18.826Z,5.32
2022-10-28T02:09:15.268Z,5.55
2022-10-28T02:12:05.156Z,5.43
2022-10-28T02:15:14.059Z,5.57
2022-10-28T02:18:08.293Z,6.18
2022-10-28T02:20:38.917Z,5.28
2022-10-28T02:23:24.622Z,4.70
2022-10-28T02:25:55.925Z,5.40
2022-10-28T02:28:32.414Z,5.40
2022-10-28T02:31:07.464Z,5.35
2022-10-28T02:33:38.593Z,5.00
2022-10-28T02:36:12.228Z,5.50
2022-10-28T02:39:00.758Z,5.00
2022-10-28T02:41:35.362Z,5.68
2022-10-28T02:44:09.907Z,5.10
2022-10-28T02:46:40.791Z,5.28
2022-10-28T02:49:12.518Z,5.13
2022-10-28T02:51:45.097Z,5.03
2022-10-28T02:54:19.100Z,5.15
2022-10-28T02:56:54.169Z,5.22
2022-10-28T02:59:21.513Z,5.07
2022-10-28T03:01:48.649Z,5.65
2022-10-28T03:04:15.371Z,5.15
2022-10-28T03:06:42.288Z,5.15
2022-10-28T03:09:09.385Z,5.10
2022-10-28T03:11:36.125Z,4.40
2022-10-28T03:14:02.958Z,5.25
2022-10-28T03:16:29.669Z,5.18
2022-10-28T03:18:56.457Z,5.53
2022-10-28T03:21:23.305Z,5.57
2022-10-28T03:23:50.225Z,5.28
2022-10-28T03:26:16.853Z,4.95
2022-10-28T03:28:46.548Z,4.25
2022-10-28T03:31:13.594Z,5.05
2022-10-28T03:33:40.348Z,4.50
2022-10-28T03:36:07.750Z,5.32
2022-10-28T03:38:37.088Z,4.88
2022-10-28T03:41:03.915Z,5.10
2022-10-28T03:43:30.515Z,4.75
2022-10-28T03:46:00.019Z,5.15
2022-10-28T03:48:26.887Z,5.15
2022-10-28T03:50:54.694Z,4.97
2022-10-28T03:53:26.252Z,4.82
2022-10-28T03:55:57.614Z,4.60
2022-10-28T03:58:24.785Z,4.93
2022-10-28T04:00:52.821Z,4.68
2022-10-28T04:03:22.342Z,5.40
2022-10-28T04:05:49.502Z,5.13
2022-10-28T04:08:17.388Z,5.38
2022-10-28T04:13:17.595Z,5.25
2022-10-28T04:15:46.621Z,5.43
2022-10-28T04:18:13.264Z,4.78
2022-10-28T04:20:42.965Z,5.35
2022-10-28T04:23:15.354Z,5.07
2022-10-28T04:25:41.918Z,5.38
2022-10-28T04:28:09.181Z,5.10
2022-10-28T04:30:36.465Z,5.75
2022-10-28T04:33:05.565Z,5.80
2022-10-28T04:35:32.404Z,5.30
2022-10-28T04:38:00.032Z,5.15
2022-10-28T04:40:29.083Z,5.15
2022-10-28T04:42:58.379Z,5.05
2022-10-28T04:45:26.013Z,5.85
2022-10-28T04:48:05.093Z,5.22
2022-10-28T04:50:32.048Z,4.82
2022-10-28T04:52:58.877Z,5.68
2022-10-28T04:55:25.755Z,4.47
2022-10-28T04:57:59.392Z,5.35
2022-10-28T05:00:27.504Z,4.88
2022-10-28T05:02:54.733Z,4.82
2022-10-28T05:05:22.264Z,5.28
2022-10-28T05:07:48.872Z,5.07
2022-10-28T05:10:16.508Z,4.93
2022-10-28T05:12:46.356Z,4.97
2022-10-28T05:15:15.255Z,4.65
2022-10-28T05:17:46.608Z,4.70
2022-10-28T05:20:15.540Z,4.78
2022-10-28T05:22:51.265Z,4.80
2022-10-28T05:25:21.340Z,5.13
2022-10-28T05:27:50.538Z,5.18
2022-10-28T05:30:17.239Z,4.93
2022-10-28T05:32:44.149Z,4.88
2022-10-28T05:35:10.878Z,5.13
2022-10-28T05:37:37.750Z,4.30
2022-10-28T05:40:04.794Z,4.32
2022-10-28T05:42:33.816Z,4.72
2022-10-28T05:45:00.669Z,4.70
2022-10-28T05:47:27.515Z,4.45
2022-10-28T05:49:54.482Z,4.93
2022-10-28T05:52:20.985Z,4.90
2022-10-28T05:54:48.362Z,4.50
2022-10-28T05:57:14.859Z,5.30
2022-10-28T05:59:41.922Z,4.75
2022-10-28T06:02:15.752Z,4.60
2022-10-28T06:04:43.420Z,4.55
2022-10-28T06:07:10.140Z,4.63
2022-10-28T06:09:37.372Z,4.82
2022-10-28T06:12:04.156Z,4.70
2022-10-28T06:14:31.140Z,4.32
2022-10-28T06:16:58.302Z,4.80
2022-10-28T06:19:25.023Z,4.67
2022-10-28T06:21:52.024Z,4.22
2022-10-28T06:24:18.816Z,4.80
2022-10-28T06:26:47.963Z,4.40
2022-10-28T06:29:14.991Z,4.60
2022-10-28T06:31:42.656Z,4.87
2022-10-28T06:34:10.339Z,4.57
2022-10-28T06:36:38.028Z,4.07
2022-10-28T06:39:05.788Z,4.85
2022-10-28T06:41:32.884Z,5.07
2022-10-28T06:43:59.721Z,4.53
2022-10-28T06:46:26.596Z,4.35
2022-10-28T06:48:56.059Z,4.25
2022-10-28T06:53:50.820Z,4.25
2022-10-28T06:56:20.575Z,4.40
2022-10-28T06:58:56.217Z,4.07
2022-10-28T07:01:23.099Z,4.57
2022-10-28T07:03:50.389Z,4.53
2022-10-28T07:06:17.878Z,4.50
2022-10-28T07:08:44.754Z,4.70
2022-10-28T07:11:13.748Z,3.88
2022-10-28T07:13:42.466Z,4.63
2022-10-28T07:16:11.101Z,4.10
2022-10-28T07:18:40.574Z,5.18
2022-10-28T07:21:10.224Z,4.43
2022-10-28T07:23:37.179Z,4.07
2022-10-28T07:26:03.993Z,4.30
2022-10-28T07:28:31.203Z,4.15
2022-10-28T07:31:01.926Z,3.85
2022-10-28T07:33:29.491Z,4.53
2022-10-28T07:35:56.585Z,4.57
2022-10-28T07:38:23.588Z,4.60
2022-10-28T07:40:50.458Z,4.40
2022-10-28T07:43:17.044Z,4.78
2022-10-28T07:45:44.106Z,4.90
2022-10-28T07:48:10.959Z,4.33
2022-10-28T07:50:37.686Z,4.47
2022-10-28T07:53:05.030Z,4.20
2022-10-28T07:55:31.753Z,4.57
2022-10-28T07:57:59.081Z,4.00
2022-10-28T08:00:25.766Z,4.35
2022-10-28T08:02:54.790Z,4.57
2022-10-28T08:05:21.575Z,4.43
2022-10-28T08:07:48.572Z,4.20
2022-10-28T08:10:15.643Z,3.90
2022-10-28T08:12:46.348Z,4.40
2022-10-28T08:15:15.221Z,4.55
2022-10-28T08:17:42.657Z,4.45
2022-10-28T08:20:10.707Z,4.32
2022-10-28T08:22:37.829Z,4.00
2022-10-28T08:25:07.406Z,4.15
2022-10-28T08:27:39.033Z,4.80
2022-10-28T08:30:06.204Z,4.28
2022-10-28T08:32:33.207Z,4.18
2022-10-28T08:34:59.850Z,3.97
2022-10-28T08:37:26.498Z,4.57
2022-10-28T08:39:53.307Z,4.10
2022-10-28T08:42:46.306Z,4.18
2022-10-28T08:45:24.933Z,4.47
2022-10-28T08:48:09.977Z,4.20
2022-10-28T08:50:59.476Z,3.85
2022-10-28T08:53:32.207Z,4.35
2022-10-28T08:56:21.320Z,3.70
2022-10-28T08:58:50.101Z,4.10
2022-10-28T09:01:45.768Z,4.38
2022-10-28T09:04:27.853Z,3.92
2022-10-28T09:06:54.791Z,3.83
2022-10-28T09:09:23.816Z,4.13
2022-10-28T09:12:23.623Z,3.50
2022-10-28T09:15:09.228Z,3.50
2022-10-28T09:17:45.719Z,4.55
2022-10-28T09:20:17.780Z,3.85
2022-10-28T09:22:53.396Z,4.10
2022-10-28T09:25:48.695Z,3.92
2022-10-28T09:28:31.535Z,4.50
2022-10-28T09:31:04.784Z,4.20
2022-10-28T09:34:01.784Z,4.78
2022-10-28T09:36:38.012Z,4.05
2022-10-28T09:39:06.424Z,4.85
2022-10-28T09:41:38.714Z,4.45
2022-10-28T09:44:20.055Z,4.18
2022-10-28T09:46:55.133Z,4.15
2022-10-28T09:49:26.710Z,4.30
2022-10-28T09:51:57.739Z,3.95
2022-10-28T09:54:35.373Z,4.30
2022-10-28T09:57:07.258Z,4.05
2022-10-28T09:59:35.021Z,4.00
2022-10-28T10:02:04.036Z,4.40
2022-10-28T10:04:36.053Z,5.05
2022-10-28T10:07:11.256Z,4.15
2022-10-28T10:09:39.985Z,4.55
2022-10-28T10:12:10.180Z,4.20
2022-10-28T10:14:53.984Z,4.40
2022-10-28T10:17:27.597Z,4.38
2022-10-28T10:20:12.616Z,4.78
2022-10-28T10:22:41.594Z,4.15
2022-10-28T10:25:20.908Z,4.80
2022-10-28T10:28:16.629Z,4.90
2022-10-28T10:30:51.333Z,3.80
2022-10-28T10:33:23.061Z,4.07
2022-10-28T10:36:00.114Z,4.72
2022-10-28T10:40:57.495Z,4.47
2022-10-28T10:43:33.346Z,4.32
2022-10-28T10:46:18.000Z,4.55
2022-10-28T10:49:12.946Z,3.88
2022-10-28T10:51:41.940Z,4.97
2022-10-28T10:54:15.396Z,4.53
2022-10-28T10:56:43.091Z,4.22
2022-10-28T10:59:27.593Z,3.80
2022-10-28T11:01:56.198Z,4.55
2022-10-28T11:04:25.858Z,4.22
2022-10-28T11:06:56.521Z,4.47
2022-10-28T11:09:37.132Z,4.57
2022-10-28T11:12:53.687Z,4.30
2022-10-28T11:15:31.207Z,4.50
2022-10-28T11:18:26.011Z,4.22
2022-10-28T11:21:21.175Z,4.90
2022-10-28T11:23:54.192Z,4.65
2022-10-28T11:26:23.578Z,4.35
2022-10-28T11:29:13.762Z,4.43
2022-10-28T11:31:52.768Z,4.57
2022-10-28T11:34:42.429Z,4.57
2022-10-28T11:37:18.195Z,4.40
2022-10-28T11:40:02.800Z,4.63
2022-10-28T11:43:10.789Z,5.22
2022-10-28T11:45:53.792Z,4.55
2022-10-28T11:48:39.734Z,5.13
2022-10-28T11:51:33.784Z,4.70
2022-10-28T11:54:17.963Z,4.60
2022-10-28T11:56:49.965Z,3.97
2022-10-28T11:59:41.278Z,3.70
2022-10-28T12:02:20.106Z,3.90
2022-10-28T12:05:09.315Z,4.25
2022-10-28T12:07:57.071Z,4.40
2022-10-28T12:10:39.461Z,3.80
2022-10-28T12:13:20.885Z,4.93
2022-10-28T12:16:08.068Z,4.47
2022-10-28T12:21:49.100Z,4.63
2022-10-28T12:24:20.481Z,3.88
2022-10-28T12:27:02.847Z,3.65
2022-10-28T12:29:44.648Z,3.97
2022-10-28T12:32:29.869Z,3.70
2022-10-28T12:35:19.951Z,4.05
2022-10-28T12:38:00.119Z,4.18
2022-10-28T12:40:32.075Z,3.90
2022-10-28T12:43:25.082Z,3.88
2022-10-28T12:45:56.302Z,3.22
2022-10-28T12:48:37.158Z,3.50
2022-10-28T12:51:08.634Z,4.22
2022-10-28T12:53:44.242Z,4.00
2022-10-28T12:56:21.402Z,3.38
2022-10-28T12:59:12.045Z,3.83
2022-10-28T13:01:43.939Z,3.83
2022-10-28T13:04:13.024Z,3.97
2022-10-28T13:06:48.853Z,4.80
2022-10-28T13:09:39.407Z,3.72
2022-10-28T13:12:14.847Z,3.50
2022-10-28T13:14:44.607Z,4.60
2022-10-28T13:17:43.238Z,4.15
2022-10-28T13:20:19.351Z,3.90
2022-10-28T13:22:51.776Z,3.50
2022-10-28T13:25:27.093Z,4.03
2022-10-28T13:28:01.458Z,4.07
2022-10-28T13:30:31.016Z,3.83
2022-10-28T13:33:08.904Z,3.97
2022-10-28T13:35:38.497Z,4.22
2022-10-28T13:38:12.012Z,3.88
2022-10-28T13:40:38.520Z,3.50
2022-10-28T13:43:05.381Z,4.05
2022-10-28T13:45:51.379Z,3.58
2022-10-28T13:48:33.049Z,3.72
2022-10-28T13:51:12.198Z,3.50
2022-10-28T13:53:56.772Z,4.15
2022-10-28T13:56:39.740Z,3.95
2022-10-28T13:59:20.420Z,3.97
2022-10-28T14:02:07.449Z,3.92
2022-10-28T14:04:39.565Z,3.40
2022-10-28T14:07:20.087Z,4.07
2022-10-28T14:09:55.704Z,3.92
2022-10-28T14:12:32.179Z,3.50
2022-10-28T14:15:04.810Z,4.63
2022-10-28T14:17:38.336Z,3.75
2022-10-28T14:20:27.766Z,3.40
2022-10-28T14:22:54.721Z,3.80
2022-10-28T14:25:44.149Z,3.78
2022-10-28T14:28:33.326Z,3.80
2022-10-28T14:31:08.708Z,3.83
2022-10-28T14:33:49.100Z,4.20
2022-10-28T14:36:19.026Z,4.15
2022-10-28T14:39:04.354Z,3.40
2022-10-28T14:42:23.004Z,3.92
2022-10-28T14:45:36.868Z,3.95
2022-10-28T14:48:12.504Z,4.55
2022-10-28T14:50:48.119Z,3.88
2022-10-28T14:53:19.482Z,3.80
2022-10-28T14:55:50.105Z,3.47
2022-10-28T14:58:23.473Z,3.38
2022-10-28T15:01:02.886Z,4.22
2022-10-28T15:03:30.046Z,3.45
2022-10-28T15:05:57.475Z,3.42
2022-10-28T15:08:24.976Z,3.45
2022-10-28T15:10:52.215Z,4.13
2022-10-28T15:13:26.362Z,3.15
2022-10-28T15:15:59.351Z,3.72
2022-10-28T15:18:29.441Z,3.45
2022-10-28T15:21:10.246Z,3.22
2022-10-28T15:23:36.983Z,4.28
2022-10-28T15:26:08.416Z,3.83
2022-10-28T15:28:35.172Z,3.55
2022-10-28T15:31:01.652Z,3.93
2022-10-28T15:33:43.276Z,3.50
2022-10-28T15:36:18.255Z,3.58
2022-10-28T15:39:06.745Z,3.22
2022-10-28T15:41:45.634Z,3.60
2022-10-28T15:44:34.235Z,4.60
2022-10-28T15:47:07.918Z,3.33
2022-10-28T15:49:39.903Z,3.83
2022-10-28T15:52:18.748Z,3.50
2022-10-28T15:54:56.678Z,3.25
2022-10-28T15:57:26.056Z,3.38
2022-10-28T16:00:20.221Z,3.60
2022-10-28T16:02:57.864Z,3.25
2022-10-28T16:05:53.936Z,2.72
2022-10-28T16:08:32.085Z,3.17
2022-10-28T16:11:02.922Z,3.50
2022-10-28T16:13:32.191Z,3.53
2022-10-28T16:16:00.855Z,4.18
2022-10-28T16:18:30.090Z,2.95
2022-10-28T16:21:00.247Z,3.85
2022-10-28T16:23:34.874Z,4.35
2022-10-28T16:26:03.961Z,3.65
2022-10-28T16:28:31.940Z,3.72
2022-10-28T16:31:00.801Z,3.67
2022-10-28T16:33:35.343Z,3.38
2022-10-28T16:36:02.614Z,3.35
2022-10-28T16:38:32.923Z,3.65
2022-10-28T16:41:01.454Z,3.40
2022-10-28T16:43:29.723Z,4.00
2022-10-28T16:45:58.203Z,3.40
2022-10-28T16:48:27.656Z,3.88
2022-10-28T16:51:00.829Z,3.45
2022-10-28T16:53:27.757Z,3.30
2022-10-28T16:55:59.121Z,4.43
2022-10-28T16:58:27.656Z,3.70
2022-10-28T17:00:57.903Z,4.07
2022-10-28T17:03:24.767Z,3.03
2022-10-28T17:05:51.662Z,4.00
2022-10-28T17:08:42.199Z,3.67
2022-10-28T17:11:07.720Z,2.90
2022-10-28T17:13:34.993Z,2.93
2022-10-28T17:16:02.269Z,3.58
2022-10-28T17:18:29.931Z,3.50
2022-10-28T17:23:30.820Z,2.95
2022-10-28T17:26:02.079Z,4.25
2022-10-28T17:28:31.211Z,3.40
2022-10-28T17:31:06.001Z,3.88
2022-10-28T17:33:35.408Z,3.30
2022-10-28T17:36:07.884Z,3.10
2022-10-28T17:38:34.600Z,3.88
2022-10-28T17:41:01.478Z,3.33
2022-10-28T17:43:28.631Z,3.90
2022-10-28T17:46:06.555Z,3.05
2022-10-28T17:48:35.968Z,3.95
2022-10-28T17:51:04.925Z,2.60
2022-10-28T17:53:31.412Z,4.28
2022-10-28T17:56:02.490Z,3.33
2022-10-28T17:58:29.709Z,3.03
2022-10-28T18:01:01.650Z,3.15
2022-10-28T18:03:38.471Z,3.63
2022-10-28T18:06:07.513Z,3.28
2022-10-28T18:08:37.401Z,5.40
2022-10-28T18:11:04.837Z,3.90
2022-10-28T18:13:37.272Z,3.38
2022-10-28T18:16:08.187Z,3.63
2022-10-28T18:18:42.072Z,4.78
2022-10-28T18:21:10.149Z,3.83
2022-10-28T18:23:38.901Z,3.50
2022-10-28T18:26:18.587Z,3.67
2022-10-28T18:28:46.310Z,3.88
2022-10-28T18:33:42.852Z,3.60
2022-10-28T18:36:16.215Z,4.00
2022-10-28T18:38:45.931Z,3.75
2022-10-28T18:41:20.777Z,4.40
2022-10-28T18:43:48.311Z,4.38
2022-10-28T18:46:15.159Z,4.25
2022-10-28T18:48:42.230Z,3.57
2022-10-28T18:51:14.486Z,4.25
2022-10-28T18:53:46.673Z,3.83
2022-10-28T18:56:22.128Z,4.13
2022-10-28T18:58:50.514Z,3.60
2022-10-28T19:01:20.682Z,3.65
2022-10-28T19:04:34.018Z,4.07
2022-10-28T19:07:06.076Z,3.75
2022-10-28T19:09:41.746Z,3.55
2022-10-28T19:12:08.905Z,3.90
2022-10-28T19:14:43.398Z,3.42
2022-10-28T19:17:16.366Z,4.30
2022-10-28T19:19:45.730Z,3.40
2022-10-28T19:22:14.908Z,5.38
2022-10-28T19:24:42.066Z,4.72
2022-10-28T19:27:09.186Z,4.68
2022-10-28T19:29:43.999Z,5.00
2022-10-28T19:32:13.774Z,4.20
2022-10-28T19:34:40.768Z,3.88
2022-10-28T19:37:07.931Z,3.73
2022-10-28T19:39:34.869Z,4.57
2022-10-28T19:42:01.566Z,4.23
2022-10-28T19:44:28.356Z,3.78
2022-10-28T19:46:55.271Z,4.28
2022-10-28T19:49:26.870Z,3.70
2022-10-28T19:51:55.562Z,3.80
2022-10-28T19:54:22.129Z,3.60
2022-10-28T19:56:49.273Z,3.40
2022-10-28T19:59:16.442Z,4.75
2022-10-28T20:01:43.445Z,3.80
2022-10-28T20:04:10.999Z,3.47
2022-10-28T20:06:39.889Z,3.42
2022-10-28T20:09:09.321Z,3.53
2022-10-28T20:11:38.010Z,3.20
2022-10-28T20:14:08.988Z,3.50
2022-10-28T20:16:36.351Z,3.28
2022-10-28T20:19:03.564Z,2.97
2022-10-28T20:21:33.468Z,3.42
2022-10-28T20:24:01.160Z,3.15
2022-10-28T20:26:33.206Z,3.20
2022-10-28T20:29:03.268Z,3.42
2022-10-28T20:31:32.416Z,3.08
2022-10-28T20:34:03.442Z,2.50
2022-10-28T20:36:36.217Z,3.03
2022-10-28T20:39:11.656Z,2.53
2022-10-28T20:41:40.277Z,3.13
2022-10-28T20:44:07.550Z,2.75
2022-10-28T20:46:35.488Z,2.92
2022-10-28T20:51:31.770Z,2.77
2022-10-28T20:53:59.612Z,2.63
2022-10-28T20:58:56.288Z,2.53
2022-10-28T21:01:31.480Z,2.75
2022-10-28T21:04:04.406Z,2.83
2022-10-28T21:06:32.044Z,2.78
2022-10-28T21:08:59.431Z,2.72
2022-10-28T21:11:27.861Z,2.92
2022-10-28T21:13:57.464Z,2.63
2022-10-28T21:16:26.371Z,3.25
2022-10-28T21:18:54.151Z,2.65
2022-10-28T21:21:22.368Z,2.50
2022-10-28T21:23:49.350Z,3.15
2022-10-28T21:26:16.717Z,2.97
2022-10-28T21:28:43.470Z,2.92
2022-10-28T21:31:15.254Z,3.58
2022-10-28T21:33:42.769Z,4.20
2022-10-28T21:36:15.136Z,2.90
2022-10-28T21:38:42.351Z,3.20
2022-10-28T21:41:11.991Z,3.20
2022-10-28T21:43:41.205Z,3.72
2022-10-28T21:46:09.179Z,3.28
2022-10-28T21:48:37.430Z,3.63
2022-10-28T21:51:10.102Z,3.47
2022-10-28T21:53:43.372Z,3.58
2022-10-28T21:56:16.985Z,62.00
2022-10-28T21:58:45.931Z,49.33
2022-10-28T22:01:22.019Z,37.88
2022-10-28T22:03:50.488Z,29.15
2022-10-28T22:06:18.090Z,34.17
2022-10-28T22:08:44.956Z,38.00
2022-10-28T22:11:17.355Z,24.35
2022-10-28T22:13:44.458Z,20.75
2022-10-28T22:16:15.872Z,13.03
2022-10-28T22:18:43.406Z,8.70
2022-10-28T22:21:16.532Z,5.18
2022-10-28T22:23:43.551Z,4.53
2022-10-28T22:26:13.354Z,3.60
2022-10-28T22:28:41.813Z,3.00
2022-10-28T22:31:11.866Z,2.92
2022-10-28T22:33:39.673Z,2.90
2022-10-28T22:38:37.561Z,3.67
2022-10-28T22:41:15.433Z,3.28
2022-10-28T22:43:44.779Z,3.05
2022-10-28T22:46:13.299Z,3.30
2022-10-28T22:48:40.383Z,3.38
2022-10-28T22:51:07.798Z,3.20
2022-10-28T22:53:34.742Z,3.85
2022-10-28T22:56:01.406Z,3.25
2022-10-28T22:58:28.645Z,3.35
2022-10-28T23:01:08.689Z,2.90
2022-10-28T23:03:40.090Z,3.55
2022-10-28T23:06:07.940Z,3.60
2022-10-28T23:08:35.290Z,3.72
2022-10-28T23:11:02.801Z,3.45
2022-10-28T23:13:31.843Z,3.33
2022-10-28T23:16:06.802Z,2.70
2022-10-28T23:18:34.242Z,3.20
2022-10-28T23:21:10.814Z,3.10
2022-10-28T23:23:38.395Z,3.60
2022-10-28T23:26:05.155Z,2.90
2022-10-28T23:28:32.284Z,3.92
2022-10-28T23:31:03.230Z,3.57
2022-10-28T23:33:31.129Z,3.45
2022-10-28T23:35:59.333Z,4.85
2022-10-28T23:38:28.411Z,3.63
2022-10-28T23:41:07.286Z,3.33
2022-10-28T23:43:34.660Z,3.25
2022-10-28T23:46:02.286Z,3.30
2022-10-28T23:48:29.934Z,3.28
2022-10-28T23:50:57.206Z,3.25
2022-10-28T23:53:24.554Z,3.13
2022-10-28T23:55:52.217Z,3.38
2022-10-28T23:58:20.520Z,3.70
